sensor_id;sensor_type;location;lat;lon;timestamp;P1;durP1;ratioP1;P2;durP2;ratioP2
55710;SDS011;41612;51.994;5.880;2023-06-24T10:49:35;6.13;;;4.70;;
55710;SDS011;41612;51.994;5.880;2023-06-24T10:52:01;4.60;;;3.83;;
55710;SDS011;41612;51.994;5.880;2023-06-24T10:54:27;5.82;;;3.38;;
55710;SDS011;41612;51.994;5.880;2023-06-24T10:57:09;7.78;;;5.70;;
55710;SDS011;41612;51.994;5.880;2023-06-24T10:59:40;4.10;;;3.05;;
55710;SDS011;41612;51.994;5.880;2023-06-24T11:02:27;10.30;;;6.90;;
55710;SDS011;41612;51.994;5.880;2023-06-24T11:07:26;6.65;;;5.40;;
55710;SDS011;41612;51.994;5.880;2023-06-24T11:10:06;5.68;;;4.10;;
55710;SDS011;41612;51.994;5.880;2023-06-24T11:12:36;12.85;;;6.47;;
55710;SDS011;41612;51.994;5.880;2023-06-24T11:17:35;9.13;;;5.55;;
55710;SDS011;41612;51.994;5.880;2023-06-24T11:20:02;9.25;;;6.30;;
55710;SDS011;41612;51.994;5.880;2023-06-24T11:22:35;9.80;;;5.83;;
55710;SDS011;41612;51.994;5.880;2023-06-24T11:25:05;6.80;;;5.40;;
55710;SDS011;41612;51.994;5.880;2023-06-24T11:27:39;4.07;;;2.90;;
55710;SDS011;41612;51.994;5.880;2023-06-24T11:30:11;8.07;;;5.20;;
55710;SDS011;41612;51.994;5.880;2023-06-24T11:32:41;7.13;;;4.00;;
55710;SDS011;41612;51.994;5.880;2023-06-24T11:35:08;5.72;;;3.65;;
55710;SDS011;41612;51.994;5.880;2023-06-24T11:37:46;6.95;;;3.60;;
55710;SDS011;41612;51.994;5.880;2023-06-24T11:40:23;4.05;;;2.67;;
55710;SDS011;41612;51.994;5.880;2023-06-24T11:42:49;5.00;;;3.08;;
55710;SDS011;41612;51.994;5.880;2023-06-24T11:45:18;4.82;;;3.58;;
55710;SDS011;41612;51.994;5.880;2023-06-24T11:47:45;6.55;;;4.63;;
55710;SDS011;41612;51.994;5.880;2023-06-24T11:50:13;5.10;;;3.58;;
55710;SDS011;41612;51.994;5.880;2023-06-24T11:52:40;5.00;;;3.38;;
55710;SDS011;41612;51.994;5.880;2023-06-24T11:55:11;7.45;;;4.97;;
55710;SDS011;41612;51.994;5.880;2023-06-24T12:00:27;7.10;;;4.53;;
55710;SDS011;41612;51.994;5.880;2023-06-24T12:03:01;6.95;;;4.45;;
55710;SDS011;41612;51.994;5.880;2023-06-24T12:05:47;7.70;;;4.45;;
55710;SDS011;41612;51.994;5.880;2023-06-24T12:08:15;5.18;;;3.90;;
55710;SDS011;41612;51.994;5.880;2023-06-24T12:10:45;5.82;;;3.72;;
55710;SDS011;41612;51.994;5.880;2023-06-24T12:13:17;6.45;;;4.20;;
55710;SDS011;41612;51.994;5.880;2023-06-24T12:15:44;9.13;;;5.30;;
55710;SDS011;41612;51.994;5.880;2023-06-24T12:18:54;6.43;;;4.78;;
55710;SDS011;41612;51.994;5.880;2023-06-24T12:22:15;6.90;;;3.75;;
55710;SDS011;41612;51.994;5.880;2023-06-24T12:25:05;5.20;;;3.20;;
55710;SDS011;41612;51.994;5.880;2023-06-24T12:27:41;5.82;;;3.97;;
55710;SDS011;41612;51.994;5.880;2023-06-24T12:30:29;4.45;;;3.20;;
55710;SDS011;41612;51.994;5.880;2023-06-24T12:33:35;3.65;;;2.20;;
55710;SDS011;41612;51.994;5.880;2023-06-24T13:23:03;5.28;;;2.80;;
55710;SDS011;41612;51.994;5.880;2023-06-24T13:40:12;4.40;;;3.05;;
55710;SDS011;41612;51.994;5.880;2023-06-24T13:42:58;6.13;;;3.33;;
55710;SDS011;41612;51.994;5.880;2023-06-24T13:49:10;4.90;;;3.08;;
55710;SDS011;41612;51.994;5.880;2023-06-24T13:51:37;3.05;;;2.20;;
55710;SDS011;41612;51.994;5.880;2023-06-24T13:54:10;3.90;;;2.78;;
55710;SDS011;41612;51.994;5.880;2023-06-24T13:57:00;3.83;;;2.42;;
55710;SDS011;41612;51.994;5.880;2023-06-24T14:13:40;4.05;;;2.80;;
55710;SDS011;41612;51.994;5.880;2023-06-24T14:16:06;5.80;;;3.50;;
55710;SDS011;41612;51.994;5.880;2023-06-24T14:18:32;4.43;;;2.30;;
55710;SDS011;41612;51.994;5.880;2023-06-24T14:21:01;3.28;;;2.33;;
55710;SDS011;41612;51.994;5.880;2023-06-24T14:23:33;3.40;;;2.38;;
55710;SDS011;41612;51.994;5.880;2023-06-24T14:26:12;3.40;;;2.63;;
55710;SDS011;41612;51.994;5.880;2023-06-24T14:28:38;4.78;;;3.00;;
55710;SDS011;41612;51.994;5.880;2023-06-24T14:36:34;6.70;;;3.38;;
55710;SDS011;41612;51.994;5.880;2023-06-24T14:39:00;4.25;;;2.90;;
55710;SDS011;41612;51.994;5.880;2023-06-24T14:41:36;3.50;;;2.55;;
55710;SDS011;41612;51.994;5.880;2023-06-24T14:44:02;4.80;;;3.22;;
55710;SDS011;41612;51.994;5.880;2023-06-24T14:46:31;4.50;;;3.00;;
55710;SDS011;41612;51.994;5.880;2023-06-24T14:48:57;3.40;;;2.50;;
55710;SDS011;41612;51.994;5.880;2023-06-24T14:51:23;5.00;;;2.92;;
55710;SDS011;41612;51.994;5.880;2023-06-24T14:54:01;5.40;;;3.10;;
55710;SDS011;41612;51.994;5.880;2023-06-24T14:56:45;2.30;;;1.60;;
55710;SDS011;41612;51.994;5.880;2023-06-24T14:59:18;3.05;;;2.35;;
55710;SDS011;41612;51.994;5.880;2023-06-24T15:02:03;4.20;;;2.22;;
55710;SDS011;41612;51.994;5.880;2023-06-24T15:04:32;3.15;;;2.33;;
55710;SDS011;41612;51.994;5.880;2023-06-24T15:06:59;3.85;;;2.80;;
55710;SDS011;41612;51.994;5.880;2023-06-24T15:09:33;4.85;;;3.17;;
55710;SDS011;41612;51.994;5.880;2023-06-24T15:12:04;2.70;;;1.80;;
55710;SDS011;41612;51.994;5.880;2023-06-24T15:14:35;3.15;;;1.95;;
55710;SDS011;41612;51.994;5.880;2023-06-24T15:17:19;3.65;;;2.10;;
55710;SDS011;41612;51.994;5.880;2023-06-24T15:20:05;2.97;;;1.90;;
55710;SDS011;41612;51.994;5.880;2023-06-24T15:22:36;2.40;;;1.67;;
55710;SDS011;41612;51.994;5.880;2023-06-24T15:25:12;3.55;;;2.35;;
55710;SDS011;41612;51.994;5.880;2023-06-24T15:27:40;3.15;;;2.42;;
55710;SDS011;41612;51.994;5.880;2023-06-24T15:30:07;2.88;;;2.00;;
55710;SDS011;41612;51.994;5.880;2023-06-24T15:32:36;2.75;;;1.80;;
55710;SDS011;41612;51.994;5.880;2023-06-24T15:35:05;2.78;;;1.90;;
55710;SDS011;41612;51.994;5.880;2023-06-24T15:40:14;3.33;;;1.80;;
55710;SDS011;41612;51.994;5.880;2023-06-24T15:43:06;4.95;;;3.72;;
55710;SDS011;41612;51.994;5.880;2023-06-24T15:45:40;4.60;;;3.03;;
55710;SDS011;41612;51.994;5.880;2023-06-24T15:48:43;5.93;;;3.45;;
55710;SDS011;41612;51.994;5.880;2023-06-24T15:51:10;3.50;;;2.55;;
55710;SDS011;41612;51.994;5.880;2023-06-24T15:54:04;6.63;;;4.18;;
55710;SDS011;41612;51.994;5.880;2023-06-24T15:56:32;3.00;;;2.30;;
55710;SDS011;41612;51.994;5.880;2023-06-24T15:59:05;2.80;;;2.17;;
55710;SDS011;41612;51.994;5.880;2023-06-24T16:04:32;4.82;;;3.30;;
55710;SDS011;41612;51.994;5.880;2023-06-24T16:07:56;4.10;;;2.95;;
55710;SDS011;41612;51.994;5.880;2023-06-24T16:13:08;5.20;;;3.47;;
55710;SDS011;41612;51.994;5.880;2023-06-24T16:15:35;2.75;;;2.28;;
55710;SDS011;41612;51.994;5.880;2023-06-24T16:18:03;3.10;;;2.40;;
55710;SDS011;41612;51.994;5.880;2023-06-24T16:20:35;2.70;;;2.13;;
55710;SDS011;41612;51.994;5.880;2023-06-24T16:26:00;4.30;;;2.90;;
55710;SDS011;41612;51.994;5.880;2023-06-24T16:55:54;3.67;;;2.50;;
55710;SDS011;41612;51.994;5.880;2023-06-24T16:58:20;4.20;;;3.10;;
55710;SDS011;41612;51.994;5.880;2023-06-24T17:00:48;3.38;;;2.30;;
55710;SDS011;41612;51.994;5.880;2023-06-24T17:03:21;3.97;;;2.60;;
55710;SDS011;41612;51.994;5.880;2023-06-24T17:22:34;5.13;;;3.20;;
55710;SDS011;41612;51.994;5.880;2023-06-24T17:38:46;3.60;;;2.88;;
55710;SDS011;41612;51.994;5.880;2023-06-24T17:49:42;3.85;;;3.03;;
55710;SDS011;41612;51.994;5.880;2023-06-24T17:52:11;4.32;;;3.30;;
55710;SDS011;41612;51.994;5.880;2023-06-24T17:54:54;3.83;;;3.42;;
55710;SDS011;41612;51.994;5.880;2023-06-24T18:00:36;3.97;;;3.15;;
55710;SDS011;41612;51.994;5.880;2023-06-24T18:03:33;6.90;;;3.55;;
55710;SDS011;41612;51.994;5.880;2023-06-24T19:13:21;4.80;;;3.65;;
55710;SDS011;41612;51.994;5.880;2023-06-24T19:16:23;5.05;;;4.22;;
55710;SDS011;41612;51.994;5.880;2023-06-24T19:18:53;4.38;;;3.88;;
55710;SDS011;41612;51.994;5.880;2023-06-24T19:21:21;6.97;;;3.83;;
55710;SDS011;41612;51.994;5.880;2023-06-24T19:23:48;4.55;;;3.80;;
55710;SDS011;41612;51.994;5.880;2023-06-24T19:26:38;5.15;;;3.70;;
55710;SDS011;41612;51.994;5.880;2023-06-24T19:29:24;4.80;;;3.70;;
55710;SDS011;41612;51.994;5.880;2023-06-24T19:32:02;5.68;;;3.97;;
55710;SDS011;41612;51.994;5.880;2023-06-24T19:35:02;6.38;;;4.57;;
55710;SDS011;41612;51.994;5.880;2023-06-24T19:37:51;4.45;;;3.60;;
55710;SDS011;41612;51.994;5.880;2023-06-24T19:40:49;6.00;;;4.38;;
55710;SDS011;41612;51.994;5.880;2023-06-24T19:43:21;5.18;;;4.13;;
